createdAt,value
2022-09-04T00:01:53.104Z,13.28
2022-09-04T00:04:31.854Z,13.28
2022-09-04T00:07:09.760Z,13.27
2022-09-04T00:09:47.393Z,13.29
2022-09-04T00:12:16.525Z,13.30
2022-09-04T00:14:50.238Z,13.29
2022-09-04T00:17:23.940Z,13.31
2022-09-04T00:19:59.498Z,13.35
2022-09-04T00:22:32.988Z,13.37
2022-09-04T00:25:04.499Z,13.37
2022-09-04T00:27:44.300Z,13.31
2022-09-04T00:30:17.270Z,13.31
2022-09-04T00:32:50.331Z,13.27
2022-09-04T00:35:24.110Z,13.25
2022-09-04T00:37:57.898Z,13.20
2022-09-04T00:40:31.546Z,13.18
2022-09-04T00:43:17.841Z,13.22
2022-09-04T00:46:05.122Z,13.24
2022-09-04T00:49:04.790Z,13.26
2022-09-04T00:51:45.676Z,13.26
2022-09-04T00:54:36.211Z,13.29
2022-09-04T00:57:44.611Z,13.28
2022-09-04T01:00:16.151Z,13.27
2022-09-04T01:03:13.731Z,13.29
2022-09-04T01:05:57.916Z,13.37
2022-09-04T01:08:41.970Z,13.41
2022-09-04T01:11:19.018Z,13.44
2022-09-04T01:13:54.840Z,13.49
2022-09-04T01:16:28.480Z,13.48
2022-09-04T01:19:02.342Z,13.49
2022-09-04T01:21:55.180Z,13.49
2022-09-04T01:24:54.137Z,13.50
2022-09-04T01:27:28.661Z,13.56
2022-09-04T01:30:05.696Z,13.57
2022-09-04T01:32:45.182Z,13.56
2022-09-04T01:35:23.230Z,13.56
2022-09-04T01:38:00.512Z,13.53
2022-09-04T01:40:37.941Z,13.50
2022-09-04T01:43:12.480Z,13.51
2022-09-04T01:45:57.546Z,13.53
2022-09-04T01:48:37.181Z,13.53
2022-09-04T01:51:15.403Z,13.48
2022-09-04T01:53:51.223Z,13.44
2022-09-04T01:56:27.059Z,13.39
2022-09-04T01:58:58.141Z,13.43
2022-09-04T02:01:38.548Z,13.41
2022-09-04T02:04:18.411Z,13.42
2022-09-04T02:06:56.841Z,13.44
2022-09-04T02:09:37.819Z,13.45
2022-09-04T02:12:19.045Z,13.45
2022-09-04T02:14:59.934Z,13.42
2022-09-04T02:17:39.352Z,13.53
2022-09-04T02:20:19.082Z,13.51
2022-09-04T02:22:58.421Z,13.56
2022-09-04T02:25:31.731Z,13.56
2022-09-04T02:28:12.719Z,13.59
2022-09-04T02:30:47.639Z,13.60
2022-09-04T02:33:30.492Z,13.57
2022-09-04T02:36:03.764Z,13.57
2022-09-04T02:38:44.019Z,13.55
2022-09-04T02:41:22.301Z,13.58
2022-09-04T02:44:05.206Z,13.61
2022-09-04T02:46:43.622Z,13.61
2022-09-04T02:49:20.362Z,13.61
2022-09-04T02:52:02.017Z,13.62
2022-09-04T02:54:43.588Z,13.67
2022-09-04T02:57:27.571Z,13.68
2022-09-04T03:00:06.991Z,13.72
2022-09-04T03:02:43.346Z,13.72
2022-09-04T03:05:20.360Z,13.72
2022-09-04T03:07:56.351Z,13.78
2022-09-04T03:10:31.171Z,13.82
2022-09-04T03:13:06.730Z,13.82
2022-09-04T03:15:43.550Z,13.85
2022-09-04T03:18:20.929Z,13.86
2022-09-04T03:20:55.083Z,13.86
2022-09-04T03:23:30.191Z,13.85
2022-09-04T03:26:15.031Z,13.90
2022-09-04T03:28:54.422Z,13.97
2022-09-04T03:31:31.076Z,13.97
2022-09-04T03:34:13.871Z,13.95
2022-09-04T03:36:49.989Z,13.99
2022-09-04T03:39:26.806Z,14.01
2022-09-04T03:42:08.791Z,13.99
2022-09-04T03:44:50.476Z,13.97
2022-09-04T03:47:27.292Z,14.00
2022-09-04T03:50:10.060Z,14.00
2022-09-04T03:52:47.471Z,13.97
2022-09-04T03:55:35.962Z,13.95
2022-09-04T03:58:15.093Z,13.90
2022-09-04T04:00:57.338Z,13.88
2022-09-04T04:03:45.459Z,13.87
2022-09-04T04:06:24.824Z,13.85
2022-09-04T04:09:10.451Z,13.85
2022-09-04T04:11:53.449Z,13.82
2022-09-04T04:14:38.403Z,13.83
2022-09-04T04:17:21.291Z,13.84
2022-09-04T04:20:05.445Z,13.84
2022-09-04T04:22:55.749Z,13.81
2022-09-04T04:25:36.082Z,13.82
2022-09-04T04:28:20.288Z,13.82
2022-09-04T04:30:52.595Z,13.84
2022-09-04T04:33:45.271Z,13.86
2022-09-04T04:36:21.780Z,13.91
2022-09-04T04:39:01.131Z,13.89
2022-09-04T04:41:57.424Z,13.90
2022-09-04T04:44:54.361Z,13.90
2022-09-04T04:47:36.671Z,13.92
2022-09-04T04:50:15.364Z,13.89
2022-09-04T04:53:00.802Z,13.86
2022-09-04T04:55:40.850Z,13.84
2022-09-04T04:58:30.111Z,13.84
2022-09-04T05:01:07.090Z,13.84
2022-09-04T05:03:49.710Z,13.83
2022-09-04T05:06:23.512Z,13.80
2022-09-04T05:08:58.984Z,13.79
2022-09-04T05:11:38.800Z,13.78
2022-09-04T05:14:19.618Z,13.78
2022-09-04T05:16:56.186Z,13.78
2022-09-04T05:19:31.663Z,13.76
2022-09-04T05:22:11.100Z,13.76
2022-09-04T05:24:51.898Z,13.77
2022-09-04T05:27:49.652Z,13.80
2022-09-04T05:30:22.521Z,13.79
2022-09-04T05:32:58.967Z,13.78
2022-09-04T05:35:39.369Z,13.75
2022-09-04T05:38:14.881Z,13.77
2022-09-04T05:40:59.270Z,13.77
2022-09-04T05:43:43.951Z,13.74
2022-09-04T05:46:18.269Z,13.74
2022-09-04T05:48:58.000Z,13.73
2022-09-04T05:52:03.768Z,13.71
2022-09-04T05:54:50.780Z,13.70
2022-09-04T05:57:27.930Z,13.69
2022-09-04T06:00:12.913Z,13.70
2022-09-04T06:03:14.786Z,13.74
2022-09-04T06:05:52.484Z,13.78
2022-09-04T06:08:33.771Z,13.78
2022-09-04T06:11:23.851Z,13.76
2022-09-04T06:14:08.081Z,13.77
2022-09-04T06:16:54.240Z,13.82
2022-09-04T06:19:49.701Z,13.80
2022-09-04T06:22:44.660Z,13.79
2022-09-04T06:25:30.893Z,13.82
2022-09-04T06:28:24.569Z,13.86
2022-09-04T06:31:02.987Z,13.88
2022-09-04T06:33:45.518Z,13.94
2022-09-04T06:36:31.361Z,14.01
2022-09-04T06:39:18.231Z,14.05
2022-09-04T06:42:01.431Z,14.08
2022-09-04T06:44:45.950Z,14.11
2022-09-04T06:47:23.271Z,14.14
2022-09-04T06:50:13.103Z,14.18
2022-09-04T06:52:48.572Z,14.16
2022-09-04T06:55:27.411Z,14.21
2022-09-04T06:58:11.741Z,14.24
2022-09-04T07:00:53.897Z,14.27
2022-09-04T07:03:35.520Z,14.26
2022-09-04T07:06:13.502Z,14.27
2022-09-04T07:08:55.770Z,14.28
2022-09-04T07:11:39.558Z,14.29
2022-09-04T07:14:17.529Z,14.31
2022-09-04T07:16:56.631Z,14.34
2022-09-04T07:19:51.623Z,14.37
2022-09-04T07:22:47.282Z,14.36
2022-09-04T07:25:23.302Z,14.39
2022-09-04T07:28:08.610Z,14.40
2022-09-04T07:30:44.331Z,14.43
2022-09-04T07:33:20.211Z,14.45
2022-09-04T07:35:55.732Z,14.49
2022-09-04T07:38:38.753Z,14.54
2022-09-04T07:41:12.959Z,14.58
2022-09-04T07:43:54.962Z,14.61
2022-09-04T07:46:33.672Z,14.66
2022-09-04T07:49:10.512Z,14.71
2022-09-04T07:51:47.652Z,14.76
2022-09-04T07:54:36.043Z,14.81
2022-09-04T07:57:17.703Z,14.84
2022-09-04T08:00:02.833Z,14.88
2022-09-04T08:02:52.470Z,14.91
2022-09-04T08:05:24.569Z,14.91
2022-09-04T08:08:31.614Z,14.93
2022-09-04T08:11:17.229Z,14.96
2022-09-04T08:14:06.364Z,14.97
2022-09-04T08:16:44.488Z,14.96
2022-09-04T08:19:23.361Z,14.95
2022-09-04T08:21:54.129Z,14.97
2022-09-04T08:24:53.109Z,14.96
2022-09-04T08:27:44.357Z,14.96
2022-09-04T08:30:15.731Z,14.99
2022-09-04T08:33:11.403Z,15.04
2022-09-04T08:35:52.001Z,15.09
2022-09-04T08:38:38.210Z,15.14
2022-09-04T08:41:45.456Z,15.16
2022-09-04T08:44:47.737Z,15.18
2022-09-04T08:47:48.223Z,15.16
2022-09-04T08:50:44.831Z,15.17
2022-09-04T08:53:47.361Z,15.29
2022-09-04T08:56:27.005Z,15.38
2022-09-04T08:59:30.740Z,15.50
2022-09-04T09:02:28.498Z,15.71
2022-09-04T09:05:31.901Z,15.77
2022-09-04T09:08:17.111Z,15.76
2022-09-04T09:11:15.780Z,15.67
2022-09-04T09:14:07.006Z,15.64
2022-09-04T09:16:44.324Z,15.69
2022-09-04T09:19:23.288Z,15.88
2022-09-04T09:22:10.762Z,15.98
2022-09-04T09:25:08.356Z,15.99
2022-09-04T09:28:11.531Z,16.01
2022-09-04T09:31:12.367Z,15.96
2022-09-04T09:34:11.332Z,15.93
2022-09-04T09:37:03.370Z,15.94
2022-09-04T09:40:00.046Z,16.04
2022-09-04T09:42:57.460Z,16.07
2022-09-04T09:45:42.181Z,16.13
2022-09-04T09:48:44.690Z,16.28
2022-09-04T09:51:43.811Z,16.48
2022-09-04T09:54:38.499Z,16.58
2022-09-04T09:57:36.410Z,16.61
2022-09-04T10:00:09.723Z,16.69
2022-09-04T10:03:18.950Z,16.82
2022-09-04T10:06:14.149Z,17.00
2022-09-04T10:09:19.641Z,17.07
2022-09-04T10:12:17.840Z,17.14
2022-09-04T10:15:10.619Z,17.22
2022-09-04T10:18:07.533Z,17.37
2022-09-04T10:20:57.021Z,17.24
2022-09-04T10:23:41.670Z,17.19
2022-09-04T10:26:36.160Z,17.33
2022-09-04T10:29:29.022Z,17.41
2022-09-04T10:32:14.873Z,17.37
2022-09-04T10:35:03.236Z,17.31
2022-09-04T10:37:51.150Z,17.34
2022-09-04T10:40:49.261Z,17.42
2022-09-04T10:43:45.081Z,17.52
2022-09-04T10:46:23.469Z,17.51
2022-09-04T10:49:15.531Z,17.50
2022-09-04T10:52:05.615Z,17.38
2022-09-04T10:55:06.856Z,17.32
2022-09-04T10:57:50.640Z,17.31
2022-09-04T11:00:20.029Z,17.33
2022-09-04T11:03:13.807Z,17.38
2022-09-04T11:06:11.129Z,17.47
2022-09-04T11:08:58.599Z,17.50
2022-09-04T11:11:50.373Z,17.40
2022-09-04T11:14:36.836Z,17.47
2022-09-04T11:17:38.622Z,17.63
2022-09-04T11:20:33.980Z,17.66
2022-09-04T11:23:41.275Z,17.64
2022-09-04T11:26:39.860Z,17.53
2022-09-04T11:29:23.199Z,17.41
2022-09-04T11:32:14.542Z,17.29
2022-09-04T11:35:20.301Z,17.29
2022-09-04T11:38:00.999Z,17.42
2022-09-04T11:41:02.300Z,17.58
2022-09-04T11:43:53.278Z,17.95
2022-09-04T11:46:38.400Z,18.38
2022-09-04T11:49:40.814Z,18.55
2022-09-04T11:52:23.929Z,18.50
2022-09-04T11:55:10.749Z,18.51
2022-09-04T11:57:54.913Z,18.65
2022-09-04T12:00:23.430Z,18.82
2022-09-04T12:03:22.010Z,19.18
2022-09-04T12:06:03.687Z,19.22
2022-09-04T12:08:47.920Z,19.31
2022-09-04T12:11:39.591Z,19.29
2022-09-04T12:14:22.960Z,19.40
2022-09-04T12:17:17.419Z,19.51
2022-09-04T12:20:16.012Z,19.69
2022-09-04T12:23:08.860Z,19.70
2022-09-04T12:25:57.953Z,19.84
2022-09-04T12:28:50.960Z,19.94
2022-09-04T12:31:51.574Z,20.32
2022-09-04T12:34:38.100Z,20.75
2022-09-04T12:37:43.589Z,20.79
2022-09-04T12:40:34.527Z,20.80
2022-09-04T12:43:16.686Z,20.56
2022-09-04T12:45:58.427Z,20.58
2022-09-04T12:48:42.801Z,20.78
2022-09-04T12:51:14.851Z,20.59
2022-09-04T12:53:57.859Z,20.39
2022-09-04T12:56:43.953Z,20.19
2022-09-04T12:59:45.803Z,20.00
2022-09-04T13:02:26.162Z,19.67
2022-09-04T13:05:06.500Z,19.45
2022-09-04T13:07:48.020Z,19.29
2022-09-04T13:10:26.973Z,19.22
2022-09-04T13:13:05.630Z,19.49
2022-09-04T13:15:46.960Z,19.49
2022-09-04T13:18:27.101Z,19.36
2022-09-04T13:21:06.581Z,19.27
2022-09-04T13:23:48.979Z,19.10
2022-09-04T13:26:36.040Z,18.97
2022-09-04T13:29:17.070Z,18.83
2022-09-04T13:32:01.610Z,18.72
2022-09-04T13:34:41.881Z,18.65
2022-09-04T13:37:21.303Z,18.52
2022-09-04T13:40:04.175Z,18.47
2022-09-04T13:43:00.200Z,18.49
2022-09-04T13:45:30.969Z,18.54
2022-09-04T13:48:05.398Z,18.99
2022-09-04T13:50:41.142Z,19.66
2022-09-04T13:53:16.920Z,19.74
2022-09-04T13:55:50.361Z,19.38
2022-09-04T13:58:20.159Z,19.02
2022-09-04T14:00:52.721Z,18.89
2022-09-04T14:03:37.989Z,18.90
2022-09-04T14:06:10.815Z,18.84
2022-09-04T14:08:43.130Z,18.81
2022-09-04T14:11:46.721Z,18.79
2022-09-04T14:14:44.890Z,18.70
2022-09-04T14:17:13.571Z,18.67
2022-09-04T14:19:57.637Z,18.66
2022-09-04T14:22:42.243Z,18.77
2022-09-04T14:25:20.330Z,18.85
2022-09-04T14:27:56.691Z,18.87
2022-09-04T14:30:25.810Z,19.00
2022-09-04T14:33:13.308Z,18.95
2022-09-04T14:35:59.946Z,18.96
2022-09-04T14:38:41.590Z,19.01
2022-09-04T14:41:36.128Z,18.96
2022-09-04T14:44:18.640Z,18.99
2022-09-04T14:46:59.344Z,19.06
2022-09-04T14:49:31.993Z,19.10
2022-09-04T14:52:11.038Z,19.15
2022-09-04T14:54:43.623Z,19.22
2022-09-04T14:57:22.681Z,19.21
2022-09-04T15:00:03.353Z,18.81
2022-09-04T15:02:38.111Z,18.34
2022-09-04T15:05:15.830Z,18.07
2022-09-04T15:07:56.806Z,17.86
2022-09-04T15:10:33.065Z,17.72
2022-09-04T15:13:33.591Z,17.69
2022-09-04T15:16:15.986Z,17.74
2022-09-04T15:18:55.954Z,17.80
2022-09-04T15:21:33.008Z,17.87
2022-09-04T15:24:11.572Z,17.97
2022-09-04T15:26:46.770Z,18.05
2022-09-04T15:29:23.041Z,18.07
2022-09-04T15:32:00.930Z,18.08
2022-09-04T15:34:30.879Z,18.08
2022-09-04T15:37:22.199Z,18.09
2022-09-04T15:40:02.151Z,18.12
2022-09-04T15:42:39.762Z,18.17
2022-09-04T15:45:23.634Z,18.21
2022-09-04T15:48:11.190Z,18.31
2022-09-04T15:50:52.701Z,18.35
2022-09-04T15:53:28.218Z,18.35
2022-09-04T15:56:10.475Z,18.38
2022-09-04T15:58:51.094Z,18.37
2022-09-04T16:01:27.591Z,18.35
2022-09-04T16:04:02.735Z,18.26
2022-09-04T16:06:32.940Z,18.17
2022-09-04T16:09:09.160Z,18.06
2022-09-04T16:11:42.661Z,17.93
2022-09-04T16:14:18.590Z,17.84
2022-09-04T16:16:53.164Z,17.79
2022-09-04T16:19:28.168Z,17.76
2022-09-04T16:22:07.462Z,17.81
2022-09-04T16:24:42.699Z,17.85
2022-09-04T16:27:15.040Z,17.90
2022-09-04T16:29:49.507Z,17.92
2022-09-04T16:32:24.458Z,17.90
2022-09-04T16:34:56.560Z,17.85
2022-09-04T16:37:33.645Z,17.82
2022-09-04T16:40:13.900Z,17.72
2022-09-04T16:42:48.219Z,17.61
2022-09-04T16:45:21.190Z,17.51
2022-09-04T16:47:59.204Z,17.41
2022-09-04T16:50:46.830Z,17.42
2022-09-04T16:53:19.100Z,17.44
2022-09-04T16:55:57.200Z,17.44
2022-09-04T16:58:46.181Z,17.46
2022-09-04T17:01:18.471Z,17.47
2022-09-04T17:04:12.646Z,17.55
2022-09-04T17:07:02.499Z,17.56
2022-09-04T17:09:44.300Z,17.54
2022-09-04T17:12:24.453Z,17.61
2022-09-04T17:15:01.951Z,17.59
2022-09-04T17:17:32.247Z,17.51
2022-09-04T17:20:06.483Z,17.48
2022-09-04T17:29:03.038Z,17.48
2022-09-04T17:29:13.397Z,17.52
2022-09-04T17:29:15.597Z,17.49
2022-09-04T17:31:35.329Z,17.50
2022-09-04T17:40:33.635Z,17.57
2022-09-04T17:40:39.727Z,17.58
2022-09-04T17:40:53.991Z,17.55
2022-09-04T17:43:21.893Z,17.52
2022-09-04T17:46:07.074Z,17.43
2022-09-04T17:48:42.300Z,17.35
2022-09-04T17:51:17.840Z,17.31
2022-09-04T17:53:53.399Z,17.31
2022-09-04T17:56:28.031Z,17.32
2022-09-04T17:59:02.849Z,17.25
2022-09-04T18:01:36.708Z,17.15
2022-09-04T18:04:27.460Z,17.18
2022-09-04T18:07:35.632Z,17.11
2022-09-04T18:10:03.030Z,17.16
2022-09-04T18:12:37.960Z,17.12
2022-09-04T18:15:34.024Z,17.09
2022-09-04T18:18:13.509Z,16.96
2022-09-04T18:20:51.656Z,16.82
2022-09-04T18:23:51.487Z,16.66
2022-09-04T18:26:40.786Z,16.53
2022-09-04T18:33:22.564Z,16.45
2022-09-04T18:37:10.646Z,16.35
2022-09-04T18:37:18.386Z,16.29
2022-09-04T18:38:19.795Z,16.25
2022-09-04T18:43:46.782Z,16.23
2022-09-04T18:50:22.646Z,16.24
2022-09-04T18:50:44.949Z,16.42
2022-09-04T18:50:52.397Z,16.25
2022-09-04T18:52:20.961Z,16.47
2022-09-04T18:54:55.671Z,16.40
2022-09-04T18:57:31.707Z,16.39
2022-09-04T19:00:08.688Z,16.27
2022-09-04T19:02:52.910Z,16.13
2022-09-04T19:05:24.247Z,16.03
2022-09-04T19:07:57.615Z,15.94
2022-09-04T19:10:29.001Z,15.84
2022-09-04T19:13:03.069Z,15.73
2022-09-04T19:15:55.707Z,15.69
2022-09-04T19:18:27.681Z,15.62
2022-09-04T19:21:23.621Z,15.56
2022-09-04T19:23:58.789Z,15.53
2022-09-04T19:26:36.244Z,15.50
2022-09-04T19:29:13.370Z,15.60
2022-09-04T19:31:51.645Z,15.62
2022-09-04T19:34:28.401Z,15.57
2022-09-04T19:37:10.922Z,15.56
2022-09-04T19:46:01.272Z,15.53
2022-09-04T19:46:07.511Z,15.51
2022-09-04T19:46:17.428Z,15.53
2022-09-04T19:48:51.060Z,15.56
2022-09-04T19:53:30.534Z,15.59
2022-09-04T19:54:35.968Z,15.69
2022-09-04T19:57:32.407Z,15.68
2022-09-04T20:00:38.382Z,15.69
2022-09-04T20:03:02.911Z,15.67
2022-09-04T20:05:33.810Z,15.62
2022-09-04T20:08:08.131Z,15.59
2022-09-04T20:10:43.818Z,15.52
2022-09-04T20:13:23.271Z,15.52
2022-09-04T20:16:00.400Z,15.50
2022-09-04T20:18:33.534Z,15.48
2022-09-04T20:21:17.090Z,15.43
2022-09-04T20:23:53.306Z,15.41
2022-09-04T20:26:25.668Z,15.39
2022-09-04T20:29:05.618Z,15.40
2022-09-04T20:31:45.056Z,15.39
2022-09-04T20:34:25.012Z,15.41
2022-09-04T20:37:00.398Z,15.42
2022-09-04T20:39:36.228Z,15.44
2022-09-04T20:42:10.890Z,15.45
2022-09-04T20:45:01.540Z,15.49
2022-09-04T20:52:48.819Z,15.53
2022-09-04T20:52:50.935Z,15.57
2022-09-04T20:53:32.519Z,15.60
2022-09-04T20:56:20.631Z,15.63
2022-09-04T21:03:13.348Z,15.59
2022-09-04T21:03:21.100Z,15.60
2022-09-04T21:05:18.515Z,15.62
2022-09-04T21:07:52.490Z,15.59
2022-09-04T21:10:32.111Z,15.53
2022-09-04T21:13:13.523Z,15.49
2022-09-04T21:15:53.134Z,15.47
2022-09-04T21:19:27.985Z,15.47
2022-09-04T21:21:59.689Z,15.48
2022-09-04T21:24:52.520Z,15.43
2022-09-04T21:27:44.720Z,15.48
2022-09-04T21:30:17.121Z,15.47
2022-09-04T21:33:01.674Z,15.44
2022-09-04T21:35:55.542Z,15.49
2022-09-04T21:38:49.599Z,15.52
2022-09-04T21:41:40.870Z,15.50
2022-09-04T21:44:39.120Z,15.50
2022-09-04T21:47:23.310Z,15.53
2022-09-04T21:50:27.239Z,15.45
2022-09-04T21:53:17.045Z,15.34
2022-09-04T21:57:28.818Z,15.22
2022-09-04T22:02:39.683Z,15.06
2022-09-04T22:02:39.897Z,15.14
2022-09-04T22:05:08.141Z,15.04
2022-09-04T22:11:48.388Z,14.98
2022-09-04T22:13:37.849Z,14.94
2022-09-04T22:13:49.212Z,14.88
2022-09-04T22:16:34.378Z,14.85
2022-09-04T22:19:27.940Z,14.81
2022-09-04T22:22:06.170Z,14.75
2022-09-04T22:25:06.929Z,14.69
2022-09-04T22:28:07.308Z,14.65
2022-09-04T22:30:50.331Z,14.60
2022-09-04T22:33:48.240Z,14.55
2022-09-04T22:37:01.085Z,14.47
2022-09-04T22:39:57.917Z,14.43
2022-09-04T22:42:48.462Z,14.38
2022-09-04T22:45:45.320Z,14.32
2022-09-04T22:48:47.872Z,14.31
2022-09-04T22:51:44.690Z,14.26
2022-09-04T22:54:30.290Z,14.20
2022-09-04T22:57:03.070Z,14.15
2022-09-04T22:59:59.459Z,14.10
2022-09-04T23:03:07.045Z,14.09
2022-09-04T23:05:48.849Z,14.05
2022-09-04T23:13:42.308Z,14.00
2022-09-04T23:13:57.803Z,13.98
2022-09-04T23:14:45.090Z,13.94
2022-09-04T23:17:35.909Z,13.89
2022-09-04T23:26:33.908Z,13.88
2022-09-04T23:26:49.408Z,13.87
2022-09-04T23:26:58.472Z,13.91
2022-09-04T23:29:45.257Z,13.94
2022-09-04T23:32:32.302Z,13.98
2022-09-04T23:35:16.996Z,14.01
2022-09-04T23:38:16.021Z,14.05
2022-09-04T23:40:46.994Z,14.15
2022-09-04T23:43:37.343Z,14.09
2022-09-04T23:46:30.152Z,13.89
2022-09-04T23:49:14.878Z,13.76
2022-09-04T23:51:50.153Z,13.67
2022-09-04T23:54:49.081Z,13.62
2022-09-04T23:57:26.902Z,13.58
